EDT,Max TemperatureF,Mean TemperatureF,Min TemperatureF,Max Dew PointF,MeanDew PointF,Min DewpointF,Max Humidity, Mean Humidity, Min Humidity, Max Sea Level PressureIn, Mean Sea Level PressureIn, Min Sea Level PressureIn, Max VisibilityMiles, Mean VisibilityMiles, Min VisibilityMiles, Max Wind SpeedMPH, Mean Wind SpeedMPH, Max Gust SpeedMPH,PrecipitationIn, CloudCover, Events, WindDirDegrees
2013-9-1,78,70,62,65,61,56,100,77,54,30.03,29.86,29.77,10,8,2,10,6,16,0.23,6,Rain,10
2013-9-2,63,59,55,57,54,52,93,83,72,30.08,29.99,29.85,10,6,2,18,9,26,1.18,8,Rain,78
2013-9-3,75,66,56,65,61,55,100,84,68,29.82,29.71,29.66,10,6,0,13,4,17,0.84,8,Fog-Rain-Thunderstorm,212
2013-9-4,72,58,43,58,53,42,100,79,57,29.86,29.72,29.65,10,10,10,20,8,29,0.00,5,,249
2013-9-5,59,50,40,45,39,31,93,65,36,30.08,29.96,29.87,10,10,10,15,5,22,T,5,,313
2013-9-6,66,52,37,42,38,33,92,63,34,30.11,30.03,29.91,10,10,2,17,7,23,0.00,0,,236
2013-9-7,67,58,49,59,52,42,93,78,63,29.90,29.78,29.68,10,9,2,17,6,24,0.23,7,Rain,224
2013-9-8,59,51,42,58,47,36,100,76,51,29.93,29.72,29.64,10,9,3,23,10,35,0.11,6,Rain,306
2013-9-9,66,52,38,43,39,36,86,62,37,30.07,30.00,29.94,10,10,10,22,8,28,0.00,0,,242
2013-9-10,66,60,53,57,51,43,90,77,63,30.07,30.04,30.01,10,10,7,12,6,17,T,5,Rain,175
2013-9-11,83,71,59,70,63,57,100,83,65,30.01,29.90,29.80,10,5,0,22,7,28,0.72,6,Fog-Rain-Thunderstorm,193
2013-9-12,70,66,62,69,65,61,100,95,90,29.86,29.76,29.57,10,4,0,10,3,21,1.23,7,Fog-Rain-Thunderstorm,188
2013-9-13,66,61,55,65,60,53,100,89,78,29.73,29.63,29.55,10,8,2,17,8,24,0.75,7,Rain,283
2013-9-14,56,51,46,54,50,45,96,90,83,29.96,29.82,29.70,10,7,2,16,8,22,0.09,8,Rain,325
2013-9-15,66,56,46,51,48,43,100,74,48,30.01,29.96,29.90,10,10,10,17,7,23,T,4,,228
2013-9-16,56,47,38,52,41,30,93,72,50,30.20,30.01,29.89,10,10,6,20,9,26,0.09,7,Rain,326
2013-9-17,63,49,35,41,38,33,92,66,39,30.32,30.25,30.18,10,10,10,14,6,20,0.00,0,,284
2013-9-18,71,57,42,45,40,34,89,58,26,30.18,30.09,30.00,10,10,10,18,7,25,0.00,0,,241
2013-9-19,75,58,41,50,46,40,100,67,33,30.05,30.01,29.96,10,10,8,13,4,17,0.00,2,,279
2013-9-20,66,60,53,56,53,50,93,78,63,30.10,30.06,30.01,10,10,10,14,4,18,T,7,Rain,139
2013-9-21,72,63,54,57,52,46,100,71,41,30.03,29.86,29.73,10,9,3,22,14,31,0.00,5,,175
2013-9-22,67,58,49,63,58,47,100,87,73,29.71,29.59,29.52,10,7,1,23,10,33,1.19,7,Rain,204
2013-9-23,49,47,45,46,43,41,93,88,82,29.79,29.74,29.66,10,9,2,18,10,24,0.16,8,Rain,308
2013-9-24,53,48,43,47,44,39,92,85,77,29.84,29.76,29.71,10,10,4,17,11,25,0.19,8,Rain,334
2013-9-25,56,50,44,46,44,42,92,79,66,29.97,29.89,29.81,10,10,9,16,9,21,T,7,Rain,342
2013-9-26,64,55,46,50,46,43,93,77,60,30.15,30.06,29.98,10,10,10,16,8,20,0.00,7,,348
2013-9-27,71,59,46,51,48,45,93,69,44,30.26,30.20,30.15,10,10,10,14,5,18,0.00,2,,343
2013-9-28,75,57,38,52,45,38,100,71,41,30.34,30.28,30.21,10,6,0,8,2,13,0.00,2,Fog,236
2013-9-29,74,59,43,52,47,41,100,69,38,30.22,30.15,30.07,10,8,0,10,3,14,0.00,0,Fog,207
2013-9-30,72,58,43,51,47,42,92,70,47,30.11,30.04,29.99,10,10,10,7,1,8,0.00,0,,160